sensor_id;sensor_type;location;lat;lon;timestamp;P1;durP1;ratioP1;P2;durP2;ratioP2
5981;SDS011;3018;48.730;9.336;2022-07-12T00:01:20;4.30;;;3.58;;
5981;SDS011;3018;48.730;9.336;2022-07-12T00:03:47;4.43;;;3.78;;
5981;SDS011;3018;48.730;9.336;2022-07-12T00:06:14;3.47;;;3.28;;
5981;SDS011;3018;48.730;9.336;2022-07-12T00:08:40;3.60;;;3.38;;
5981;SDS011;3018;48.730;9.336;2022-07-12T00:11:07;3.55;;;3.35;;
5981;SDS011;3018;48.730;9.336;2022-07-12T00:13:34;3.35;;;3.25;;
5981;SDS011;3018;48.730;9.336;2022-07-12T00:16:00;3.78;;;3.58;;
5981;SDS011;3018;48.730;9.336;2022-07-12T00:18:26;3.33;;;3.22;;
5981;SDS011;3018;48.730;9.336;2022-07-12T00:20:53;3.50;;;3.30;;
5981;SDS011;3018;48.730;9.336;2022-07-12T00:23:20;3.30;;;3.20;;
5981;SDS011;3018;48.730;9.336;2022-07-12T00:25:47;4.95;;;3.80;;
5981;SDS011;3018;48.730;9.336;2022-07-12T00:28:13;3.03;;;2.92;;
5981;SDS011;3018;48.730;9.336;2022-07-12T00:30:40;3.30;;;3.10;;
5981;SDS011;3018;48.730;9.336;2022-07-12T00:33:07;3.50;;;3.30;;
5981;SDS011;3018;48.730;9.336;2022-07-12T00:35:33;4.45;;;3.13;;
5981;SDS011;3018;48.730;9.336;2022-07-12T00:38:00;3.80;;;3.58;;
5981;SDS011;3018;48.730;9.336;2022-07-12T00:40:27;3.50;;;3.40;;
5981;SDS011;3018;48.730;9.336;2022-07-12T00:42:53;3.95;;;3.67;;
5981;SDS011;3018;48.730;9.336;2022-07-12T00:45:20;3.35;;;3.25;;
5981;SDS011;3018;48.730;9.336;2022-07-12T00:47:46;3.80;;;3.50;;
5981;SDS011;3018;48.730;9.336;2022-07-12T00:50:15;3.35;;;3.10;;
5981;SDS011;3018;48.730;9.336;2022-07-12T00:52:43;3.95;;;3.65;;
5981;SDS011;3018;48.730;9.336;2022-07-12T00:55:09;3.10;;;3.00;;
5981;SDS011;3018;48.730;9.336;2022-07-12T00:57:37;3.78;;;3.47;;
5981;SDS011;3018;48.730;9.336;2022-07-12T01:00:05;3.70;;;3.40;;
5981;SDS011;3018;48.730;9.336;2022-07-12T01:02:32;4.05;;;3.60;;
5981;SDS011;3018;48.730;9.336;2022-07-12T01:04:59;3.55;;;3.30;;
5981;SDS011;3018;48.730;9.336;2022-07-12T01:07:27;4.07;;;3.80;;
5981;SDS011;3018;48.730;9.336;2022-07-12T01:09:54;3.38;;;3.28;;
5981;SDS011;3018;48.730;9.336;2022-07-12T01:12:20;3.28;;;3.08;;
5981;SDS011;3018;48.730;9.336;2022-07-12T01:14:47;3.42;;;3.33;;
5981;SDS011;3018;48.730;9.336;2022-07-12T01:17:15;3.40;;;3.30;;
5981;SDS011;3018;48.730;9.336;2022-07-12T01:19:41;3.75;;;3.45;;
5981;SDS011;3018;48.730;9.336;2022-07-12T01:22:09;4.07;;;3.92;;
5981;SDS011;3018;48.730;9.336;2022-07-12T01:24:37;3.63;;;3.42;;
5981;SDS011;3018;48.730;9.336;2022-07-12T01:27:04;3.88;;;3.72;;
5981;SDS011;3018;48.730;9.336;2022-07-12T01:29:33;3.78;;;3.53;;
5981;SDS011;3018;48.730;9.336;2022-07-12T01:31:59;4.07;;;3.80;;
5981;SDS011;3018;48.730;9.336;2022-07-12T01:34:46;4.10;;;3.85;;
5981;SDS011;3018;48.730;9.336;2022-07-12T01:37:13;3.60;;;3.50;;
5981;SDS011;3018;48.730;9.336;2022-07-12T01:39:42;3.75;;;3.45;;
5981;SDS011;3018;48.730;9.336;2022-07-12T01:42:08;3.78;;;3.58;;
5981;SDS011;3018;48.730;9.336;2022-07-12T01:44:34;3.70;;;3.40;;
5981;SDS011;3018;48.730;9.336;2022-07-12T01:47:00;3.58;;;3.45;;
5981;SDS011;3018;48.730;9.336;2022-07-12T01:49:27;3.65;;;3.55;;
5981;SDS011;3018;48.730;9.336;2022-07-12T01:51:54;3.88;;;3.58;;
5981;SDS011;3018;48.730;9.336;2022-07-12T01:54:20;3.40;;;3.28;;
5981;SDS011;3018;48.730;9.336;2022-07-12T01:56:48;3.97;;;3.78;;
5981;SDS011;3018;48.730;9.336;2022-07-12T01:59:14;3.88;;;3.58;;
5981;SDS011;3018;48.730;9.336;2022-07-12T02:01:41;4.30;;;3.45;;
5981;SDS011;3018;48.730;9.336;2022-07-12T02:04:08;4.10;;;3.78;;
5981;SDS011;3018;48.730;9.336;2022-07-12T02:06:34;3.65;;;3.42;;
5981;SDS011;3018;48.730;9.336;2022-07-12T02:09:01;4.07;;;3.72;;
5981;SDS011;3018;48.730;9.336;2022-07-12T02:11:27;3.50;;;3.20;;
5981;SDS011;3018;48.730;9.336;2022-07-12T02:13:55;4.20;;;3.70;;
5981;SDS011;3018;48.730;9.336;2022-07-12T02:16:21;4.15;;;4.00;;
5981;SDS011;3018;48.730;9.336;2022-07-12T02:18:47;4.10;;;3.80;;
5981;SDS011;3018;48.730;9.336;2022-07-12T02:21:14;3.92;;;3.70;;
5981;SDS011;3018;48.730;9.336;2022-07-12T02:23:40;3.58;;;3.35;;
5981;SDS011;3018;48.730;9.336;2022-07-12T02:26:06;3.78;;;3.58;;
5981;SDS011;3018;48.730;9.336;2022-07-12T02:28:32;3.63;;;3.50;;
5981;SDS011;3018;48.730;9.336;2022-07-12T02:31:00;4.10;;;3.80;;
5981;SDS011;3018;48.730;9.336;2022-07-12T02:33:26;5.00;;;3.58;;
5981;SDS011;3018;48.730;9.336;2022-07-12T02:35:52;3.92;;;3.58;;
5981;SDS011;3018;48.730;9.336;2022-07-12T02:38:19;4.00;;;3.70;;
5981;SDS011;3018;48.730;9.336;2022-07-12T02:40:45;6.13;;;3.80;;
5981;SDS011;3018;48.730;9.336;2022-07-12T02:43:20;3.72;;;3.45;;
5981;SDS011;3018;48.730;9.336;2022-07-12T02:45:47;3.72;;;3.40;;
5981;SDS011;3018;48.730;9.336;2022-07-12T02:48:14;3.70;;;3.50;;
5981;SDS011;3018;48.730;9.336;2022-07-12T02:50:41;4.00;;;3.80;;
5981;SDS011;3018;48.730;9.336;2022-07-12T02:53:07;3.45;;;3.25;;
5981;SDS011;3018;48.730;9.336;2022-07-12T02:55:34;3.10;;;3.00;;
5981;SDS011;3018;48.730;9.336;2022-07-12T02:58:00;3.10;;;3.00;;
5981;SDS011;3018;48.730;9.336;2022-07-12T03:00:27;2.30;;;2.30;;
5981;SDS011;3018;48.730;9.336;2022-07-12T03:02:54;4.05;;;2.33;;
5981;SDS011;3018;48.730;9.336;2022-07-12T03:05:21;2.70;;;2.60;;
5981;SDS011;3018;48.730;9.336;2022-07-12T03:07:48;2.80;;;2.70;;
5981;SDS011;3018;48.730;9.336;2022-07-12T03:10:14;2.75;;;2.65;;
5981;SDS011;3018;48.730;9.336;2022-07-12T03:12:40;2.83;;;2.50;;
5981;SDS011;3018;48.730;9.336;2022-07-12T03:15:07;2.95;;;2.80;;
5981;SDS011;3018;48.730;9.336;2022-07-12T03:17:33;3.60;;;3.30;;
5981;SDS011;3018;48.730;9.336;2022-07-12T03:19:59;3.45;;;3.25;;
5981;SDS011;3018;48.730;9.336;2022-07-12T03:22:27;3.15;;;3.05;;
5981;SDS011;3018;48.730;9.336;2022-07-12T03:24:53;3.08;;;2.97;;
5981;SDS011;3018;48.730;9.336;2022-07-12T03:27:20;4.10;;;3.42;;
5981;SDS011;3018;48.730;9.336;2022-07-12T03:29:46;3.67;;;3.20;;
5981;SDS011;3018;48.730;9.336;2022-07-12T03:32:12;2.80;;;2.80;;
5981;SDS011;3018;48.730;9.336;2022-07-12T03:34:38;3.10;;;3.00;;
5981;SDS011;3018;48.730;9.336;2022-07-12T03:37:05;2.90;;;2.80;;
5981;SDS011;3018;48.730;9.336;2022-07-12T03:39:32;3.75;;;3.47;;
5981;SDS011;3018;48.730;9.336;2022-07-12T03:41:58;3.55;;;3.10;;
5981;SDS011;3018;48.730;9.336;2022-07-12T03:44:25;3.50;;;3.20;;
5981;SDS011;3018;48.730;9.336;2022-07-12T03:46:51;3.92;;;3.00;;
5981;SDS011;3018;48.730;9.336;2022-07-12T03:49:17;2.75;;;2.65;;
5981;SDS011;3018;48.730;9.336;2022-07-12T03:51:43;3.10;;;2.90;;
5981;SDS011;3018;48.730;9.336;2022-07-12T03:54:10;2.75;;;2.55;;
5981;SDS011;3018;48.730;9.336;2022-07-12T03:56:37;4.50;;;2.92;;
5981;SDS011;3018;48.730;9.336;2022-07-12T03:59:21;3.30;;;3.20;;
5981;SDS011;3018;48.730;9.336;2022-07-12T04:01:48;2.60;;;2.50;;
5981;SDS011;3018;48.730;9.336;2022-07-12T04:04:14;2.90;;;2.80;;
5981;SDS011;3018;48.730;9.336;2022-07-12T04:06:40;3.50;;;2.72;;
5981;SDS011;3018;48.730;9.336;2022-07-12T04:09:06;2.83;;;2.72;;
5981;SDS011;3018;48.730;9.336;2022-07-12T04:11:33;2.80;;;2.70;;
5981;SDS011;3018;48.730;9.336;2022-07-12T04:14:00;2.92;;;2.83;;
5981;SDS011;3018;48.730;9.336;2022-07-12T04:16:27;3.10;;;2.90;;
5981;SDS011;3018;48.730;9.336;2022-07-12T04:18:54;3.05;;;2.90;;
5981;SDS011;3018;48.730;9.336;2022-07-12T04:21:21;3.60;;;3.30;;
5981;SDS011;3018;48.730;9.336;2022-07-12T04:23:47;3.05;;;2.85;;
5981;SDS011;3018;48.730;9.336;2022-07-12T04:26:13;2.92;;;2.70;;
5981;SDS011;3018;48.730;9.336;2022-07-12T04:28:40;3.95;;;2.58;;
5981;SDS011;3018;48.730;9.336;2022-07-12T04:31:07;2.90;;;2.70;;
5981;SDS011;3018;48.730;9.336;2022-07-12T04:33:34;2.33;;;2.30;;
5981;SDS011;3018;48.730;9.336;2022-07-12T04:36:00;3.05;;;2.95;;
5981;SDS011;3018;48.730;9.336;2022-07-12T04:38:27;2.50;;;2.40;;
5981;SDS011;3018;48.730;9.336;2022-07-12T04:40:53;3.63;;;3.08;;
5981;SDS011;3018;48.730;9.336;2022-07-12T04:43:19;3.47;;;2.92;;
5981;SDS011;3018;48.730;9.336;2022-07-12T04:45:46;3.38;;;3.17;;
5981;SDS011;3018;48.730;9.336;2022-07-12T04:48:13;3.58;;;3.30;;
5981;SDS011;3018;48.730;9.336;2022-07-12T04:50:39;3.47;;;3.17;;
5981;SDS011;3018;48.730;9.336;2022-07-12T04:53:06;6.47;;;4.47;;
5981;SDS011;3018;48.730;9.336;2022-07-12T04:55:32;4.95;;;4.50;;
5981;SDS011;3018;48.730;9.336;2022-07-12T04:57:58;4.03;;;3.78;;
5981;SDS011;3018;48.730;9.336;2022-07-12T05:00:25;5.13;;;3.92;;
5981;SDS011;3018;48.730;9.336;2022-07-12T05:02:51;4.57;;;4.18;;
5981;SDS011;3018;48.730;9.336;2022-07-12T05:05:19;4.07;;;3.70;;
5981;SDS011;3018;48.730;9.336;2022-07-12T05:07:46;4.25;;;3.95;;
5981;SDS011;3018;48.730;9.336;2022-07-12T05:10:12;4.68;;;4.20;;
5981;SDS011;3018;48.730;9.336;2022-07-12T05:12:38;4.80;;;4.18;;
5981;SDS011;3018;48.730;9.336;2022-07-12T05:15:05;4.93;;;4.22;;
5981;SDS011;3018;48.730;9.336;2022-07-12T05:17:32;4.30;;;3.95;;
5981;SDS011;3018;48.730;9.336;2022-07-12T05:19:58;5.03;;;4.53;;
5981;SDS011;3018;48.730;9.336;2022-07-12T05:22:26;5.03;;;4.53;;
5981;SDS011;3018;48.730;9.336;2022-07-12T05:24:52;7.57;;;4.93;;
5981;SDS011;3018;48.730;9.336;2022-07-12T05:27:18;6.15;;;4.85;;
5981;SDS011;3018;48.730;9.336;2022-07-12T05:29:45;5.32;;;4.82;;
5981;SDS011;3018;48.730;9.336;2022-07-12T05:32:11;5.57;;;5.18;;
5981;SDS011;3018;48.730;9.336;2022-07-12T05:34:37;6.90;;;4.85;;
5981;SDS011;3018;48.730;9.336;2022-07-12T05:37:04;5.65;;;5.15;;
5981;SDS011;3018;48.730;9.336;2022-07-12T05:39:31;5.60;;;5.10;;
5981;SDS011;3018;48.730;9.336;2022-07-12T05:41:58;6.00;;;5.40;;
5981;SDS011;3018;48.730;9.336;2022-07-12T05:44:24;7.15;;;5.15;;
5981;SDS011;3018;48.730;9.336;2022-07-12T05:46:51;6.03;;;5.50;;
5981;SDS011;3018;48.730;9.336;2022-07-12T05:49:17;7.18;;;6.47;;
5981;SDS011;3018;48.730;9.336;2022-07-12T05:51:43;6.80;;;6.20;;
5981;SDS011;3018;48.730;9.336;2022-07-12T05:54:27;8.50;;;5.95;;
5981;SDS011;3018;48.730;9.336;2022-07-12T05:56:54;6.97;;;6.47;;
5981;SDS011;3018;48.730;9.336;2022-07-12T05:59:21;8.18;;;6.63;;
5981;SDS011;3018;48.730;9.336;2022-07-12T06:01:47;7.10;;;6.60;;
5981;SDS011;3018;48.730;9.336;2022-07-12T06:04:13;7.15;;;6.32;;
5981;SDS011;3018;48.730;9.336;2022-07-12T06:06:40;7.63;;;6.80;;
5981;SDS011;3018;48.730;9.336;2022-07-12T06:09:06;6.95;;;6.35;;
5981;SDS011;3018;48.730;9.336;2022-07-12T06:11:32;6.72;;;6.13;;
5981;SDS011;3018;48.730;9.336;2022-07-12T06:14:00;7.15;;;6.43;;
5981;SDS011;3018;48.730;9.336;2022-07-12T06:16:26;9.00;;;6.22;;
5981;SDS011;3018;48.730;9.336;2022-07-12T06:18:52;6.88;;;6.25;;
5981;SDS011;3018;48.730;9.336;2022-07-12T06:21:19;7.95;;;6.18;;
5981;SDS011;3018;48.730;9.336;2022-07-12T06:23:45;6.57;;;5.88;;
5981;SDS011;3018;48.730;9.336;2022-07-12T06:26:11;8.32;;;5.65;;
5981;SDS011;3018;48.730;9.336;2022-07-12T06:28:37;7.40;;;5.80;;
5981;SDS011;3018;48.730;9.336;2022-07-12T06:31:05;6.28;;;5.82;;
5981;SDS011;3018;48.730;9.336;2022-07-12T06:33:31;5.28;;;4.88;;
5981;SDS011;3018;48.730;9.336;2022-07-12T06:35:57;6.40;;;4.82;;
5981;SDS011;3018;48.730;9.336;2022-07-12T06:38:24;5.40;;;5.07;;
5981;SDS011;3018;48.730;9.336;2022-07-12T06:40:50;5.28;;;4.78;;
5981;SDS011;3018;48.730;9.336;2022-07-12T06:43:16;6.50;;;4.20;;
5981;SDS011;3018;48.730;9.336;2022-07-12T06:45:42;6.07;;;4.90;;
5981;SDS011;3018;48.730;9.336;2022-07-12T06:48:11;5.28;;;4.35;;
5981;SDS011;3018;48.730;9.336;2022-07-12T06:50:37;5.28;;;3.97;;
5981;SDS011;3018;48.730;9.336;2022-07-12T06:53:03;6.88;;;3.42;;
5981;SDS011;3018;48.730;9.336;2022-07-12T06:55:29;5.88;;;3.83;;
5981;SDS011;3018;48.730;9.336;2022-07-12T06:57:56;5.78;;;3.65;;
5981;SDS011;3018;48.730;9.336;2022-07-12T07:00:22;4.70;;;3.50;;
5981;SDS011;3018;48.730;9.336;2022-07-12T07:02:48;5.38;;;3.00;;
5981;SDS011;3018;48.730;9.336;2022-07-12T07:05:16;2.85;;;2.75;;
5981;SDS011;3018;48.730;9.336;2022-07-12T07:07:42;2.92;;;2.45;;
5981;SDS011;3018;48.730;9.336;2022-07-12T07:10:09;2.50;;;2.40;;
5981;SDS011;3018;48.730;9.336;2022-07-12T07:12:35;2.47;;;2.30;;
5981;SDS011;3018;48.730;9.336;2022-07-12T07:15:02;2.38;;;2.25;;
5981;SDS011;3018;48.730;9.336;2022-07-12T07:17:28;2.95;;;2.33;;
5981;SDS011;3018;48.730;9.336;2022-07-12T07:19:54;2.08;;;1.90;;
5981;SDS011;3018;48.730;9.336;2022-07-12T07:22:22;2.67;;;2.47;;
5981;SDS011;3018;48.730;9.336;2022-07-12T07:24:48;4.32;;;2.78;;
5981;SDS011;3018;48.730;9.336;2022-07-12T07:27:14;3.33;;;2.33;;
5981;SDS011;3018;48.730;9.336;2022-07-12T07:29:40;2.10;;;2.00;;
5981;SDS011;3018;48.730;9.336;2022-07-12T07:32:24;1.83;;;1.73;;
5981;SDS011;3018;48.730;9.336;2022-07-12T07:34:51;2.55;;;2.45;;
5981;SDS011;3018;48.730;9.336;2022-07-12T07:37:17;1.67;;;1.58;;
5981;SDS011;3018;48.730;9.336;2022-07-12T07:39:45;5.68;;;5.15;;
5981;SDS011;3018;48.730;9.336;2022-07-12T07:42:11;4.00;;;1.95;;
5981;SDS011;3018;48.730;9.336;2022-07-12T07:44:38;1.45;;;1.45;;
5981;SDS011;3018;48.730;9.336;2022-07-12T07:47:04;1.50;;;1.40;;
5981;SDS011;3018;48.730;9.336;2022-07-12T07:49:30;1.10;;;1.10;;
5981;SDS011;3018;48.730;9.336;2022-07-12T07:51:57;2.28;;;1.23;;
5981;SDS011;3018;48.730;9.336;2022-07-12T07:54:23;1.10;;;1.00;;
5981;SDS011;3018;48.730;9.336;2022-07-12T07:56:50;2.33;;;2.28;;
5981;SDS011;3018;48.730;9.336;2022-07-12T07:59:17;1.50;;;1.50;;
5981;SDS011;3018;48.730;9.336;2022-07-12T08:01:43;1.00;;;1.00;;
5981;SDS011;3018;48.730;9.336;2022-07-12T08:04:10;0.95;;;0.95;;
5981;SDS011;3018;48.730;9.336;2022-07-12T08:06:36;0.40;;;0.40;;
5981;SDS011;3018;48.730;9.336;2022-07-12T08:09:02;0.68;;;0.52;;
5981;SDS011;3018;48.730;9.336;2022-07-12T08:11:29;0.70;;;0.40;;
5981;SDS011;3018;48.730;9.336;2022-07-12T08:13:56;0.40;;;0.40;;
5981;SDS011;3018;48.730;9.336;2022-07-12T08:16:23;0.22;;;0.20;;
5981;SDS011;3018;48.730;9.336;2022-07-12T08:18:49;2.58;;;0.43;;
5981;SDS011;3018;48.730;9.336;2022-07-12T08:21:15;0.40;;;0.40;;
5981;SDS011;3018;48.730;9.336;2022-07-12T08:23:42;0.30;;;0.30;;
5981;SDS011;3018;48.730;9.336;2022-07-12T08:26:08;0.20;;;0.20;;
5981;SDS011;3018;48.730;9.336;2022-07-12T08:28:34;0.30;;;0.30;;
5981;SDS011;3018;48.730;9.336;2022-07-12T08:31:02;1.05;;;0.20;;
5981;SDS011;3018;48.730;9.336;2022-07-12T08:33:28;0.20;;;0.20;;
5981;SDS011;3018;48.730;9.336;2022-07-12T08:35:54;0.20;;;0.20;;
5981;SDS011;3018;48.730;9.336;2022-07-12T08:38:21;0.20;;;0.20;;
5981;SDS011;3018;48.730;9.336;2022-07-12T08:40:47;0.30;;;0.30;;
5981;SDS011;3018;48.730;9.336;2022-07-12T08:43:14;1.58;;;0.25;;
5981;SDS011;3018;48.730;9.336;2022-07-12T08:45:40;0.20;;;0.20;;
5981;SDS011;3018;48.730;9.336;2022-07-12T08:48:08;0.90;;;0.20;;
5981;SDS011;3018;48.730;9.336;2022-07-12T08:50:34;1.75;;;0.40;;
5981;SDS011;3018;48.730;9.336;2022-07-12T08:53:00;0.30;;;0.30;;
5981;SDS011;3018;48.730;9.336;2022-07-12T08:55:27;0.40;;;0.40;;
5981;SDS011;3018;48.730;9.336;2022-07-12T08:57:55;0.30;;;0.30;;
5981;SDS011;3018;48.730;9.336;2022-07-12T09:00:21;0.20;;;0.20;;
5981;SDS011;3018;48.730;9.336;2022-07-12T09:02:48;0.85;;;0.40;;
5981;SDS011;3018;48.730;9.336;2022-07-12T09:05:16;1.38;;;0.40;;
5981;SDS011;3018;48.730;9.336;2022-07-12T09:07:43;1.38;;;0.60;;
5981;SDS011;3018;48.730;9.336;2022-07-12T09:10:10;0.68;;;0.50;;
5981;SDS011;3018;48.730;9.336;2022-07-12T09:12:37;0.40;;;0.40;;
5981;SDS011;3018;48.730;9.336;2022-07-12T09:15:10;0.40;;;0.40;;
5981;SDS011;3018;48.730;9.336;2022-07-12T09:17:37;2.85;;;0.52;;
5981;SDS011;3018;48.730;9.336;2022-07-12T09:20:03;0.47;;;0.40;;
5981;SDS011;3018;48.730;9.336;2022-07-12T09:22:32;0.57;;;0.57;;
5981;SDS011;3018;48.730;9.336;2022-07-12T09:25:00;1.92;;;0.60;;
5981;SDS011;3018;48.730;9.336;2022-07-12T09:27:33;1.45;;;0.50;;
5981;SDS011;3018;48.730;9.336;2022-07-12T09:30:00;0.60;;;0.60;;
5981;SDS011;3018;48.730;9.336;2022-07-12T09:32:29;0.85;;;0.60;;
5981;SDS011;3018;48.730;9.336;2022-07-12T09:35:13;0.40;;;0.40;;
5981;SDS011;3018;48.730;9.336;2022-07-12T09:38:02;0.45;;;0.45;;
5981;SDS011;3018;48.730;9.336;2022-07-12T09:40:33;1.50;;;0.45;;
5981;SDS011;3018;48.730;9.336;2022-07-12T09:42:59;0.32;;;0.30;;
5981;SDS011;3018;48.730;9.336;2022-07-12T09:45:26;0.88;;;0.40;;
5981;SDS011;3018;48.730;9.336;2022-07-12T09:47:53;2.72;;;0.47;;
5981;SDS011;3018;48.730;9.336;2022-07-12T09:50:19;0.35;;;0.35;;
5981;SDS011;3018;48.730;9.336;2022-07-12T09:52:45;0.68;;;0.30;;
5981;SDS011;3018;48.730;9.336;2022-07-12T09:55:16;0.30;;;0.30;;
5981;SDS011;3018;48.730;9.336;2022-07-12T09:57:43;0.22;;;0.22;;
5981;SDS011;3018;48.730;9.336;2022-07-12T10:00:11;0.30;;;0.30;;
5981;SDS011;3018;48.730;9.336;2022-07-12T10:02:38;1.10;;;0.52;;
5981;SDS011;3018;48.730;9.336;2022-07-12T10:05:04;0.82;;;0.60;;
5981;SDS011;3018;48.730;9.336;2022-07-12T10:07:33;0.50;;;0.50;;
5981;SDS011;3018;48.730;9.336;2022-07-12T10:09:59;1.65;;;0.50;;
5981;SDS011;3018;48.730;9.336;2022-07-12T10:12:27;0.22;;;0.22;;
5981;SDS011;3018;48.730;9.336;2022-07-12T10:14:55;0.57;;;0.57;;
5981;SDS011;3018;48.730;9.336;2022-07-12T10:17:23;0.70;;;0.20;;
5981;SDS011;3018;48.730;9.336;2022-07-12T10:19:50;0.30;;;0.30;;
5981;SDS011;3018;48.730;9.336;2022-07-12T10:22:36;2.50;;;0.40;;
5981;SDS011;3018;48.730;9.336;2022-07-12T10:25:03;0.20;;;0.20;;
5981;SDS011;3018;48.730;9.336;2022-07-12T10:27:32;1.65;;;0.50;;
5981;SDS011;3018;48.730;9.336;2022-07-12T10:30:11;1.65;;;0.20;;
5981;SDS011;3018;48.730;9.336;2022-07-12T10:32:39;0.30;;;0.30;;
5981;SDS011;3018;48.730;9.336;2022-07-12T10:35:12;0.65;;;0.65;;
5981;SDS011;3018;48.730;9.336;2022-07-12T10:37:39;1.60;;;0.30;;
5981;SDS011;3018;48.730;9.336;2022-07-12T10:40:14;0.20;;;0.20;;
5981;SDS011;3018;48.730;9.336;2022-07-12T10:43:11;2.92;;;0.85;;
5981;SDS011;3018;48.730;9.336;2022-07-12T10:45:35;7.38;;;6.60;;
5981;SDS011;3018;48.730;9.336;2022-07-12T10:48:03;0.52;;;0.52;;
5981;SDS011;3018;48.730;9.336;2022-07-12T10:50:50;0.57;;;0.57;;
5981;SDS011;3018;48.730;9.336;2022-07-12T10:53:20;0.68;;;0.25;;
5981;SDS011;3018;48.730;9.336;2022-07-12T10:56:01;0.20;;;0.20;;
5981;SDS011;3018;48.730;9.336;2022-07-12T10:58:34;0.70;;;0.25;;
5981;SDS011;3018;48.730;9.336;2022-07-12T11:01:01;0.52;;;0.30;;
5981;SDS011;3018;48.730;9.336;2022-07-12T11:03:29;0.20;;;0.20;;
5981;SDS011;3018;48.730;9.336;2022-07-12T11:05:59;0.30;;;0.30;;
5981;SDS011;3018;48.730;9.336;2022-07-12T11:08:25;1.27;;;0.10;;
5981;SDS011;3018;48.730;9.336;2022-07-12T11:10:54;0.38;;;0.30;;
5981;SDS011;3018;48.730;9.336;2022-07-12T11:13:21;1.73;;;0.20;;
5981;SDS011;3018;48.730;9.336;2022-07-12T11:15:56;1.00;;;0.28;;
5981;SDS011;3018;48.730;9.336;2022-07-12T11:18:29;1.50;;;0.30;;
5981;SDS011;3018;48.730;9.336;2022-07-12T11:20:56;0.30;;;0.30;;
5981;SDS011;3018;48.730;9.336;2022-07-12T11:23:23;0.10;;;0.10;;
5981;SDS011;3018;48.730;9.336;2022-07-12T11:25:50;0.20;;;0.20;;
5981;SDS011;3018;48.730;9.336;2022-07-12T11:28:17;0.30;;;0.30;;
5981;SDS011;3018;48.730;9.336;2022-07-12T11:30:47;0.98;;;0.20;;
5981;SDS011;3018;48.730;9.336;2022-07-12T11:33:15;0.30;;;0.30;;
5981;SDS011;3018;48.730;9.336;2022-07-12T11:35:42;0.30;;;0.30;;
5981;SDS011;3018;48.730;9.336;2022-07-12T11:38:09;0.55;;;0.30;;
5981;SDS011;3018;48.730;9.336;2022-07-12T11:40:36;0.52;;;0.20;;
5981;SDS011;3018;48.730;9.336;2022-07-12T11:43:02;0.20;;;0.20;;
5981;SDS011;3018;48.730;9.336;2022-07-12T11:45:30;0.32;;;0.20;;
5981;SDS011;3018;48.730;9.336;2022-07-12T11:47:58;0.20;;;0.20;;
5981;SDS011;3018;48.730;9.336;2022-07-12T11:50:26;0.30;;;0.30;;
5981;SDS011;3018;48.730;9.336;2022-07-12T11:52:52;0.30;;;0.30;;
5981;SDS011;3018;48.730;9.336;2022-07-12T11:55:19;0.17;;;0.17;;
5981;SDS011;3018;48.730;9.336;2022-07-12T11:57:45;0.30;;;0.30;;
5981;SDS011;3018;48.730;9.336;2022-07-12T12:00:18;0.65;;;0.10;;
5981;SDS011;3018;48.730;9.336;2022-07-12T12:02:45;0.20;;;0.20;;
5981;SDS011;3018;48.730;9.336;2022-07-12T12:05:11;0.20;;;0.20;;
5981;SDS011;3018;48.730;9.336;2022-07-12T12:07:39;0.47;;;0.28;;
5981;SDS011;3018;48.730;9.336;2022-07-12T12:10:09;0.43;;;0.20;;
5981;SDS011;3018;48.730;9.336;2022-07-12T12:12:37;1.55;;;0.20;;
5981;SDS011;3018;48.730;9.336;2022-07-12T12:15:04;0.47;;;0.25;;
5981;SDS011;3018;48.730;9.336;2022-07-12T12:17:31;0.32;;;0.32;;
5981;SDS011;3018;48.730;9.336;2022-07-12T12:19:59;0.32;;;0.10;;
5981;SDS011;3018;48.730;9.336;2022-07-12T12:22:32;0.20;;;0.20;;
5981;SDS011;3018;48.730;9.336;2022-07-12T12:25:00;0.20;;;0.20;;
5981;SDS011;3018;48.730;9.336;2022-07-12T12:27:27;0.20;;;0.20;;
5981;SDS011;3018;48.730;9.336;2022-07-12T12:29:53;0.43;;;0.30;;
5981;SDS011;3018;48.730;9.336;2022-07-12T12:32:19;1.42;;;0.20;;
5981;SDS011;3018;48.730;9.336;2022-07-12T12:37:26;0.95;;;0.30;;
5981;SDS011;3018;48.730;9.336;2022-07-12T12:39:53;0.10;;;0.10;;
5981;SDS011;3018;48.730;9.336;2022-07-12T12:42:24;0.25;;;0.25;;
5981;SDS011;3018;48.730;9.336;2022-07-12T12:44:50;0.00;;;0.00;;
5981;SDS011;3018;48.730;9.336;2022-07-12T12:47:17;0.38;;;0.30;;
5981;SDS011;3018;48.730;9.336;2022-07-12T12:49:59;0.73;;;0.20;;
5981;SDS011;3018;48.730;9.336;2022-07-12T12:52:26;1.52;;;0.20;;
5981;SDS011;3018;48.730;9.336;2022-07-12T12:54:53;0.28;;;0.20;;
5981;SDS011;3018;48.730;9.336;2022-07-12T12:57:19;1.17;;;0.30;;
5981;SDS011;3018;48.730;9.336;2022-07-12T12:59:47;0.55;;;0.15;;
5981;SDS011;3018;48.730;9.336;2022-07-12T13:02:13;0.10;;;0.10;;
5981;SDS011;3018;48.730;9.336;2022-07-12T13:04:40;0.75;;;0.30;;
5981;SDS011;3018;48.730;9.336;2022-07-12T13:07:06;0.20;;;0.20;;
5981;SDS011;3018;48.730;9.336;2022-07-12T13:09:32;0.28;;;0.20;;
5981;SDS011;3018;48.730;9.336;2022-07-12T13:11:59;1.17;;;0.20;;
5981;SDS011;3018;48.730;9.336;2022-07-12T13:14:26;1.40;;;0.20;;
5981;SDS011;3018;48.730;9.336;2022-07-12T13:16:53;0.10;;;0.10;;
5981;SDS011;3018;48.730;9.336;2022-07-12T13:19:19;1.50;;;0.20;;
5981;SDS011;3018;48.730;9.336;2022-07-12T13:21:46;0.13;;;0.10;;
5981;SDS011;3018;48.730;9.336;2022-07-12T13:24:12;0.20;;;0.20;;
5981;SDS011;3018;48.730;9.336;2022-07-12T13:26:38;0.45;;;0.25;;
5981;SDS011;3018;48.730;9.336;2022-07-12T13:29:04;1.50;;;0.30;;
5981;SDS011;3018;48.730;9.336;2022-07-12T13:31:31;0.30;;;0.15;;
5981;SDS011;3018;48.730;9.336;2022-07-12T13:33:58;0.20;;;0.20;;
5981;SDS011;3018;48.730;9.336;2022-07-12T13:36:25;0.10;;;0.10;;
5981;SDS011;3018;48.730;9.336;2022-07-12T13:38:51;2.13;;;0.28;;
5981;SDS011;3018;48.730;9.336;2022-07-12T13:41:17;0.10;;;0.10;;
5981;SDS011;3018;48.730;9.336;2022-07-12T13:43:44;0.20;;;0.20;;
5981;SDS011;3018;48.730;9.336;2022-07-12T13:46:10;0.90;;;0.32;;
5981;SDS011;3018;48.730;9.336;2022-07-12T13:48:36;2.85;;;0.20;;
5981;SDS011;3018;48.730;9.336;2022-07-12T13:51:04;1.85;;;0.20;;
5981;SDS011;3018;48.730;9.336;2022-07-12T13:53:30;0.25;;;0.22;;
5981;SDS011;3018;48.730;9.336;2022-07-12T13:55:56;1.27;;;0.30;;
5981;SDS011;3018;48.730;9.336;2022-07-12T13:58:23;0.45;;;0.20;;
5981;SDS011;3018;48.730;9.336;2022-07-12T14:00:49;2.30;;;0.20;;
5981;SDS011;3018;48.730;9.336;2022-07-12T14:03:16;0.55;;;0.17;;
5981;SDS011;3018;48.730;9.336;2022-07-12T14:05:42;1.35;;;0.10;;
5981;SDS011;3018;48.730;9.336;2022-07-12T14:08:10;0.20;;;0.20;;
5981;SDS011;3018;48.730;9.336;2022-07-12T14:10:36;1.95;;;0.22;;
5981;SDS011;3018;48.730;9.336;2022-07-12T14:13:02;0.80;;;0.20;;
5981;SDS011;3018;48.730;9.336;2022-07-12T14:15:29;0.20;;;0.20;;
5981;SDS011;3018;48.730;9.336;2022-07-12T14:18:05;0.20;;;0.20;;
5981;SDS011;3018;48.730;9.336;2022-07-12T14:20:32;0.25;;;0.25;;
5981;SDS011;3018;48.730;9.336;2022-07-12T14:22:59;0.10;;;0.10;;
5981;SDS011;3018;48.730;9.336;2022-07-12T14:25:27;0.10;;;0.10;;
5981;SDS011;3018;48.730;9.336;2022-07-12T14:27:53;0.20;;;0.20;;
5981;SDS011;3018;48.730;9.336;2022-07-12T14:30:20;0.20;;;0.20;;
5981;SDS011;3018;48.730;9.336;2022-07-12T14:32:47;0.20;;;0.20;;
5981;SDS011;3018;48.730;9.336;2022-07-12T14:35:13;0.22;;;0.22;;
5981;SDS011;3018;48.730;9.336;2022-07-12T14:37:39;1.65;;;0.30;;
5981;SDS011;3018;48.730;9.336;2022-07-12T14:40:06;1.35;;;0.20;;
5981;SDS011;3018;48.730;9.336;2022-07-12T14:42:34;1.75;;;0.30;;
5981;SDS011;3018;48.730;9.336;2022-07-12T14:45:01;0.63;;;0.20;;
5981;SDS011;3018;48.730;9.336;2022-07-12T14:47:28;1.75;;;0.20;;
5981;SDS011;3018;48.730;9.336;2022-07-12T14:49:54;1.10;;;0.30;;
5981;SDS011;3018;48.730;9.336;2022-07-12T14:52:21;0.70;;;0.20;;
5981;SDS011;3018;48.730;9.336;2022-07-12T14:54:47;0.13;;;0.13;;
5981;SDS011;3018;48.730;9.336;2022-07-12T14:57:15;0.40;;;0.30;;
5981;SDS011;3018;48.730;9.336;2022-07-12T14:59:43;0.20;;;0.20;;
5981;SDS011;3018;48.730;9.336;2022-07-12T15:02:09;0.55;;;0.20;;
5981;SDS011;3018;48.730;9.336;2022-07-12T15:04:36;0.80;;;0.20;;
5981;SDS011;3018;48.730;9.336;2022-07-12T15:07:03;1.48;;;0.30;;
5981;SDS011;3018;48.730;9.336;2022-07-12T15:09:29;0.70;;;0.20;;
5981;SDS011;3018;48.730;9.336;2022-07-12T15:11:56;0.10;;;0.10;;
5981;SDS011;3018;48.730;9.336;2022-07-12T15:14:22;0.20;;;0.20;;
5981;SDS011;3018;48.730;9.336;2022-07-12T15:16:49;0.20;;;0.20;;
5981;SDS011;3018;48.730;9.336;2022-07-12T15:19:16;1.17;;;0.20;;